< Typhoon 202108 2021 Season Typhoon 202110 >
Typhoon 202109 (LUPIT)
General InformationTrack Information on Google MapsDetailed Wind InformationForecast History on Google MapsAccess Analytics MapList of All Images || NewsDisaster Info.WeblogTrackbackTyphoon FrontTwiphoonTyphoon Now!Typhoon ImaginationJMA Disaster Info. XMLResourceGoogle EarthGE AnimationAtom FeedGeoJSON
Detalied Best Track (Time Zone = UTC)
Year Month Day Hour Lat. Long. Pressure (hPa) Wind (kt) Class Image Chart
2021 8 2 12 21.1 111.8 996 0 2 Image Chart
2021 8 2 18 21.3 112.4 996 0 2 Image Chart
2021 8 3 00 21.5 113.3 996 0 2 Image Chart
2021 8 3 06 21.5 113.4 996 0 2 Image Chart
2021 8 3 12 21.2 114.1 996 0 2 Image Chart
2021 8 3 18 21.0 114.7 996 0 2 Image Chart
2021 8 4 00 21.2 115.4 994 35 3 Image Chart
2021 8 4 06 21.5 115.5 992 35 3 Image Chart
2021 8 4 12 21.7 116.1 990 40 3 Image Chart
2021 8 4 18 22.3 116.6 990 40 3 Image Chart
2021 8 5 00 23.3 117.0 990 40 3 Image Chart
2021 8 5 06 23.5 116.9 990 40 3 Image Chart
2021 8 5 12 23.9 117.2 992 40 3 Image Chart
2021 8 5 18 24.0 117.5 992 40 3 Image Chart
2021 8 6 00 24.2 118.1 992 40 3 Image Chart
2021 8 6 06 24.7 118.8 992 40 3 Image Chart
2021 8 6 12 24.9 119.6 994 35 3 Image Chart
2021 8 6 18 25.1 120.0 994 35 3 Image Chart
2021 8 7 00 25.1 120.7 994 35 3 Image Chart
2021 8 7 06 26.1 122.9 994 35 3 Image Chart
2021 8 7 12 27.5 124.5 994 35 3 Image Chart
2021 8 7 18 28.3 125.8 992 40 3 Image Chart
2021 8 8 00 29.3 127.0 990 40 3 Image Chart
2021 8 8 06 30.0 129.0 990 40 3 Image Chart
2021 8 8 11 31.3 130.4 988 40 3 Image Chart
2021 8 8 12 31.5 130.9 988 40 3 Image Chart
2021 8 8 18 33.9 132.3 984 45 3 Image Chart
2021 8 8 20 34.4 132.5 984 45 3 Image Chart
2021 8 9 00 35.4 133.8 982 0 6 Image Chart
2021 8 9 06 36.6 135.0 982 0 6 Image Chart
2021 8 9 12 37.9 136.3 984 0 6 Image Chart
2021 8 9 18 39.1 138.2 984 0 6 Image Chart
2021 8 10 00 39.8 140.9 988 0 6 Image Chart
2021 8 10 06 40.7 143.3 988 0 6 Image Chart
2021 8 10 12 40.9 145.7 988 0 6 Image Chart
2021 8 10 18 41.4 148.2 988 0 6 Image Chart
2021 8 11 00 42.1 150.8 988 0 6 Image Chart
2021 8 11 06 42.5 153.4 984 0 6 Image Chart
2021 8 11 12 42.9 155.7 984 0 6 Image Chart
2021 8 11 18 43.2 157.7 984 0 6 Image Chart
2021 8 12 00 43.4 159.4 984 0 6 Image Chart
2021 8 12 06 43.7 161.7 986 0 6 Image Chart
2021 8 12 12 44.4 163.9 988 0 6 Image Chart
2021 8 12 18 44.8 165.1 988 0 6 Image Chart
2021 8 13 00 44.9 165.5 986 0 6 Image Chart
2021 8 13 06 45.0 166.1 988 0 6 Image Chart
2021 8 13 12 44.7 167.5 992 0 6 Image Chart
2021 8 13 18 44.8 170.4 996 0 6 Image Chart
2021 8 14 00 45.1 172.5 1000 0 6 Image Chart
2021 8 14 06 45.6 173.5 1002 0 6 Image Chart
2021 8 14 12 46.0 173.8 1006 0 6 Image Chart
2021 8 14 18 46.4 174.1 1006 0 6 Image Chart
2021 8 15 00 46.5 174.6 1008 0 6 Image Chart
2021 8 15 06 46.9 174.9 1008 0 6 Image Chart
2021 8 15 12 47.6 175.2 1008 0 6 Image Chart
2021 8 15 18 47.6 175.2 1006 0 6 Image Chart
Japan Meteorological Agency Best Track Data | Correction Date : 2021-11-04
< Typhoon 202108 2021 Season Typhoon 202110 >

Help